• Join FlightAware (Why Join?)
  • Login
  • US Flag 
04:56AM EDT


 

Airport Tracker/Info


-or-


 

Live Flight TrackerFlight Track Log ✈ CTL312 ✈ 01-May-2013 ✈ KBKL - KHAO

Flight Track Log - Related Links

Times and Time Zones

All times are in EDT time to prevent confusion due to time zone crossing. See the CTL312 flight status page for this flight to view local times or setup timezone preferences in your user account.

Time Position Orientation Groundspeed Altitude Reporting Facility
EDT Latitude Longitude Course Direction KTS MPH feet Rate Location/Type
07:11PM 41.5356 -81.6844 330° Northwest 145 167 1,200  Level Cleveland Center
07:11PM 41.5542 -81.6986 330° Northwest 155 178 1,500 780 Climbing Cleveland Center
07:12PM 41.5683 -81.7572 288° West 168 193 2,400 900 Climbing Cleveland Center
07:14PM 41.5174 -81.7541 177° South  Level FlightAware Approximate
07:14PM 41.5800 -81.8294 177° South 153 176 3,600  Level Cleveland Center
07:15PM 41.5753 -81.8822 263° West 154 177 4,400 780 Climbing Cleveland Center
07:16PM 41.5725 -81.9319 266° West 149 171 5,100 660 Climbing Cleveland Center
07:17PM 41.5553 -81.9844 246° West 160 184 5,700 420 Climbing Cleveland Center
07:18PM 41.5172 -82.0364 226° Southwest 174 200 6,100 180 Climbing Cleveland Center
07:19PM 41.4772 -82.0658 209° Southwest 177 204 6,100  Level Cleveland Center
07:20PM 41.4292 -82.0647 179° South 168 193 6,100  Level Cleveland Center
07:21PM 41.3914 -82.0778 195° South 184 212 6,100  Level Cleveland Center
07:22PM 41.3492 -82.1322 224° Southwest 185 213 6,100  Level Cleveland Center
07:23PM 41.3108 -82.1864 227° Southwest 183 211 6,100  Level Cleveland Center
07:24PM 41.2872 -82.2272 232° Southwest 182 209 6,100 -60 Level Cleveland Center
07:26PM 41.2225 -82.2987 220° Southwest  Level FlightAware Approximate
07:33PM 40.9699 -82.5816 221° Southwest  Level FlightAware Approximate
07:34PM 40.9341 -82.6223 221° Southwest  Level FlightAware Approximate
07:35PM 40.8983 -82.6630 221° Southwest  Level FlightAware Approximate
07:36PM 40.8625 -82.7036 221° Southwest  Level FlightAware Approximate
07:37PM 40.8266 -82.7441 221° Southwest  Level FlightAware Approximate
07:38PM 40.7908 -82.7847 221° Southwest  Level FlightAware Approximate
07:39PM 40.7549 -82.8251 221° Southwest  Level FlightAware Approximate
07:39PM 40.7278 -82.9494 220° Southwest 184 212 6,000  Level Indianapolis Center
07:40PM 40.7190 -82.8656 220° Southwest  Level FlightAware Approximate
07:40PM 40.6917 -82.9969 225° Southwest 184 212 6,000  Level Indianapolis Center
07:41PM 40.6831 -82.9060 220° Southwest  Level FlightAware Approximate
07:41PM 40.6547 -83.0442 224° Southwest 183 211 6,000  Level Indianapolis Center
07:42PM 40.6472 -82.9463 220° Southwest  Level FlightAware Approximate
07:42PM 40.6172 -83.0903 223° Southwest 183 211 5,900  Level Indianapolis Center
07:43PM 40.6112 -82.9866 220° Southwest  Level FlightAware Approximate
07:43PM 40.5797 -83.1369 223° Southwest 184 212 6,000  Level Indianapolis Center
07:44PM 40.5753 -83.0268 220° Southwest  Level FlightAware Approximate
07:44PM 40.5456 -83.1853 227° Southwest 186 214 6,000  Level Indianapolis Center
07:45PM 40.5393 -83.0670 220° Southwest  Level FlightAware Approximate
07:45PM 40.5014 -83.2389 223° Southwest 185 213 6,000  Level Indianapolis Center
07:46PM 40.4647 -83.2842 223° Southwest 182 209 6,000  Level Indianapolis Center
07:47PM 40.4272 -83.3294 223° Southwest 182 209 6,000  Level Indianapolis Center
07:48PM 40.3917 -83.3772 226° Southwest 181 208 6,000  Level Indianapolis Center
07:49PM 40.3569 -83.4258 227° Southwest 182 209 6,000  Level Indianapolis Center
07:50PM 40.3211 -83.4731 225° Southwest 182 209 6,000  Level Indianapolis Center
07:51PM 40.2850 -83.5203 225° Southwest 182 209 6,000  Level Indianapolis Center
07:53PM 40.2456 -83.5636 220° Southwest 174 200 6,000  Level Indianapolis Center
07:54PM 40.2108 -83.6033 221° Southwest 176 203 6,000  Level Indianapolis Center
07:55PM 40.1681 -83.6522 221° Southwest 175 201 6,000  Level Indianapolis Center
07:56PM 40.1311 -83.6967 223° Southwest 179 206 6,000  Level Indianapolis Center
07:57PM 40.0944 -83.7386 221° Southwest 176 203 6,000  Level Indianapolis Center
07:58PM 40.0578 -83.7803 221° Southwest 174 200 6,000  Level Indianapolis Center
07:59PM 40.0189 -83.8244 221° Southwest 174 200 6,000  Level Indianapolis Center
08:00PM 39.9819 -83.8686 222° Southwest 176 203 6,000  Level Indianapolis Center
08:02PM 39.9111 -83.9494 221° Southwest 176 203 6,000  Level Indianapolis Center
08:03PM 39.8742 -83.9908 221° Southwest 178 205 6,000  Level Indianapolis Center
08:03PM 39.8656 -83.9992 217° Southwest 177 204 6,000  Level Indianapolis Center
08:04PM 39.8375 -84.0322 222° Southwest 178 205 6,000  Level Indianapolis Center
08:04PM 39.8283 -84.0428 221° Southwest 178 205 6,000  Level Indianapolis Center
08:05PM 39.7983 -84.0789 223° Southwest 179 206 6,000  Level Indianapolis Center
08:05PM 39.7908 -84.0858 215° Southwest 178 205 6,000  Level Indianapolis Center
08:06PM 39.7617 -84.1203 222° Southwest 178 205 6,000  Level Indianapolis Center
08:06PM 39.7536 -84.1289 219° Southwest 178 205 6,000  Level Indianapolis Center
08:07PM 39.7250 -84.1589 219° Southwest 175 201 6,000 -240 Level Indianapolis Center
08:07PM 39.7150 -84.1694 219° Southwest 178 205 5,800 -600 Descending Indianapolis Center
08:08PM 39.6814 -84.2072 221° Southwest 188 216 5,400 -600 Descending Indianapolis Center
08:08PM 39.6747 -84.2142 219° Southwest 182 209 5,200 -720 Descending Indianapolis Center
08:09PM 39.6422 -84.2536 223° Southwest 196 226 4,700 -600 Descending Indianapolis Center
08:09PM 39.6328 -84.2603 209° Southwest 190 219 4,600 -600 Descending Indianapolis Center
08:10PM 39.6008 -84.2969 221° Southwest 195 224 4,100 -540 Descending Indianapolis Center
08:10PM 39.5925 -84.3064 221° Southwest 192 221 4,100 -120 Level Indianapolis Center
08:11PM 39.5597 -84.3403 219° Southwest 186 214 4,000 -120 Descending Indianapolis Center
08:11PM 39.5522 -84.3481 219° Southwest 188 216 4,000  Level Indianapolis Center
08:12PM 39.5136 -84.3864 217° Southwest 180 207 4,000 -360 Level Indianapolis Center
08:13PM 39.4669 -84.4308 216° Southwest 176 203 3,300 -480 Descending Indianapolis Center
08:14PM 39.4283 -84.4675 216° Southwest 177 204 3,100 -240 Descending Indianapolis Center